Pine Springs, Arizona
Current Conditions -  °F | °C
As of 9:29 AM on Thursday 18 Dec 2014 (Local Time) from KRQE Reporting Station
Overcast Overcast  
Wind Chill: 33°   Ceiling: 1000
Heat Index: 33°   Visibility: 10mi
Dew Point: 28°   Wind: 0mph
Humidity: 82%   Direction: NA
Pressure: 30.14"   Gusts: NA
Location:  35.2918°N, 109.157°W
Report Text: KRQE 181629Z AUTO 00000KT 10SM OVC010 01/M02 A3014 RMK AO2 CIG 007V012 T00061022 TSNO
Loading
Personal Weather Stations






























Interactive Weather Map New forecast layout! Learn more

10-Day Weather Forecast

Advertisements
Track Severe Weather on mobile